Time;durP1;ratioP1;P1;durP2;ratioP2;P2;SDS_P1;SDS_P2;PMS_P1;PMS_P2;Temp;Humidity;BMP_temperature;BMP_pressure;BME280_temperature;BME280_humidity;BME280_pressure;Samples;Min_cycle;Max_cycle;Signal;HPM_P1;HPM_P2
2021/07/24 00:01:46;;;;;;;9.60;7.70;;;20.10;32.30;;;;;;5053614;28;20626;-79
2021/07/24 00:04:12;;;;;;;9.33;8.00;;;20.10;33.60;;;;;;5053868;28;20692;-80
2021/07/24 00:06:38;;;;;;;10.17;7.83;;;20.00;34.30;;;;;;5053077;28;20209;-78
2021/07/24 00:09:04;;;;;;;11.20;8.77;;;20.00;36.90;;;;;;5053078;28;20244;-79
2021/07/24 00:11:32;;;;;;;10.40;8.07;;;20.10;33.40;;;;;;5053167;28;20197;-78
2021/07/24 00:13:58;;;;;;;9.07;7.77;;;20.00;34.80;;;;;;5052218;28;20185;-79
2021/07/24 00:16:23;;;;;;;11.73;7.93;;;20.00;37.50;;;;;;5053086;28;20177;-78
2021/07/24 00:18:49;;;;;;;11.90;8.23;;;19.90;34.90;;;;;;5053242;28;20526;-79
2021/07/24 00:21:15;;;;;;;13.77;7.87;;;20.00;36.70;;;;;;5053095;28;20699;-79
2021/07/24 00:23:40;;;;;;;9.47;8.17;;;19.90;38.20;;;;;;5053006;28;20206;-78
2021/07/24 00:26:06;;;;;;;10.47;8.30;;;19.80;37.70;;;;;;5053357;28;20219;-79
2021/07/24 00:28:32;;;;;;;10.43;7.90;;;19.80;37.80;;;;;;5052934;28;20213;-79
2021/07/24 00:30:58;;;;;;;13.27;8.03;;;19.80;38.80;;;;;;5052829;28;20177;-78
2021/07/24 00:33:23;;;;;;;10.37;8.07;;;19.80;40.50;;;;;;5052785;28;20220;-79
2021/07/24 00:35:49;;;;;;;8.97;8.07;;;19.80;40.00;;;;;;5052938;28;20181;-78
2021/07/24 00:38:15;;;;;;;10.27;8.00;;;19.80;41.00;;;;;;5053815;28;20186;-79
2021/07/24 00:40:48;;;;;;;10.67;8.43;;;19.80;39.80;;;;;;5057466;28;20182;-78
2021/07/24 00:43:14;;;;;;;10.10;8.40;;;19.80;41.20;;;;;;5057048;28;20184;-79
2021/07/24 00:45:48;;;;;;;9.63;8.23;;;19.80;41.70;;;;;;5057239;28;20680;-79
2021/07/24 00:48:21;;;;;;;10.80;9.03;;;19.70;41.70;;;;;;5056707;28;20208;-78
2021/07/24 00:50:53;;;;;;;12.70;9.57;;;19.70;45.90;;;;;;5057267;28;20169;-78
2021/07/24 00:53:33;;;;;;;14.47;9.13;;;19.70;48.10;;;;;;5057104;28;20655;-78
2021/07/24 00:56:00;;;;;;;11.50;9.57;;;19.60;48.90;;;;;;5056423;28;20176;-78
2021/07/24 00:58:31;;;;;;;12.77;9.20;;;19.40;52.00;;;;;;5055121;28;20182;-76
2021/07/24 01:00:58;;;;;;;12.87;9.53;;;19.40;53.20;;;;;;5056445;28;20213;-78
2021/07/24 01:03:25;;;;;;;13.27;9.67;;;19.40;54.00;;;;;;5056223;28;20181;-78
2021/07/24 01:05:56;;;;;;;13.20;9.67;;;19.30;55.00;;;;;;5056712;28;20630;-78
2021/07/24 01:08:22;;;;;;;10.77;9.37;;;19.30;56.50;;;;;;5056290;28;20567;-79
2021/07/24 01:10:49;;;;;;;12.10;9.40;;;19.20;56.90;;;;;;5056925;28;20196;-78
2021/07/24 01:13:18;;;;;;;12.53;10.00;;;19.20;58.20;;;;;;5055999;28;20644;-78
2021/07/24 01:15:48;;;;;;;12.87;10.43;;;19.30;57.90;;;;;;5056541;28;20184;-77
2021/07/24 01:18:15;;;;;;;10.80;9.70;;;19.20;58.60;;;;;;5056395;28;20205;-77
2021/07/24 01:20:42;;;;;;;12.50;10.43;;;19.20;58.50;;;;;;5056838;28;20199;-78
2021/07/24 01:23:12;;;;;;;13.00;10.03;;;19.20;57.80;;;;;;5056930;28;20185;-79
2021/07/24 01:25:45;;;;;;;11.53;9.80;;;19.10;59.70;;;;;;5055917;28;20169;-78
2021/07/24 01:28:11;;;;;;;11.73;10.53;;;19.10;60.30;;;;;;5055902;28;20201;-78
2021/07/24 01:30:37;;;;;;;12.60;10.17;;;19.00;61.80;;;;;;5055790;28;20176;-79
2021/07/24 01:33:03;;;;;;;13.67;10.80;;;19.00;62.90;;;;;;5055815;28;20611;-78
2021/07/24 01:35:29;;;;;;;15.17;10.60;;;19.00;63.40;;;;;;5055915;28;20169;-78
2021/07/24 01:37:54;;;;;;;11.23;10.03;;;19.10;60.60;;;;;;5055891;28;20199;-78
2021/07/24 01:40:20;;;;;;;12.17;10.73;;;19.10;60.60;;;;;;5055620;28;20166;-79
2021/07/24 01:42:46;;;;;;;12.63;10.07;;;19.30;56.50;;;;;;5055696;28;20200;-79
2021/07/24 01:45:11;;;;;;;12.70;10.70;;;19.50;50.10;;;;;;5055712;28;20660;-78
2021/07/24 01:47:37;;;;;;;15.70;10.33;;;19.40;49.90;;;;;;5055457;28;20186;-78
2021/07/24 01:52:50;;;;;;;13.13;10.60;;;19.50;47.50;;;;;;5056983;28;20254;-78
2021/07/24 01:55:36;;;;;;;11.70;10.07;;;19.50;49.30;;;;;;5057925;28;20210;-76
2021/07/24 01:58:04;;;;;;;11.17;9.90;;;19.40;49.70;;;;;;5057713;28;20693;-77
2021/07/24 02:00:33;;;;;;;13.73;10.20;;;19.30;52.40;;;;;;5061361;28;20166;-78
2021/07/24 02:03:04;;;;;;;12.57;10.00;;;19.30;52.80;;;;;;5059609;28;20167;-75
2021/07/24 02:05:46;;;;;;;13.93;10.30;;;19.20;54.20;;;;;;5055402;28;20200;-77
2021/07/24 02:08:21;;;;;;;15.33;11.13;;;19.20;56.70;;;;;;5054729;28;20203;-76
2021/07/24 02:10:48;;;;;;;14.37;10.50;;;19.10;55.90;;;;;;5055030;28;20158;-77
2021/07/24 02:13:15;;;;;;;13.67;10.83;;;19.10;59.40;;;;;;5053701;28;20184;-77
2021/07/24 02:15:41;;;;;;;15.77;11.17;;;19.10;59.40;;;;;;5053945;28;20565;-78
2021/07/24 02:18:08;;;;;;;12.10;10.07;;;19.00;61.50;;;;;;5054599;28;20170;-77
2021/07/24 02:20:36;;;;;;;10.97;9.87;;;19.00;61.40;;;;;;5053651;28;20201;-77
2021/07/24 02:23:02;;;;;;;13.67;10.57;;;19.00;61.50;;;;;;5054664;28;20560;-78
2021/07/24 02:25:28;;;;;;;13.37;9.90;;;19.00;62.70;;;;;;5054596;28;20651;-77
2021/07/24 02:27:54;;;;;;;12.67;10.53;;;19.00;61.30;;;;;;5054506;28;20239;-77
2021/07/24 02:30:19;;;;;;;14.63;10.57;;;18.90;65.30;;;;;;5054702;28;20562;-77
2021/07/24 02:32:45;;;;;;;12.43;10.53;;;18.90;65.30;;;;;;5054850;28;20178;-78
2021/07/24 02:35:12;;;;;;;12.40;11.10;;;18.90;63.00;;;;;;5054442;28;20625;-78
2021/07/24 02:37:38;;;;;;;11.97;10.37;;;19.00;64.50;;;;;;5054653;28;20174;-78
2021/07/24 02:40:05;;;;;;;13.43;10.40;;;18.90;66.70;;;;;;5054539;28;20200;-77
2021/07/24 02:42:31;;;;;;;14.00;10.77;;;18.90;66.40;;;;;;5053352;28;20307;-78
2021/07/24 02:44:57;;;;;;;11.93;10.37;;;19.00;65.30;;;;;;5054335;28;20622;-79
2021/07/24 02:47:23;;;;;;;13.37;10.90;;;18.90;67.60;;;;;;5054368;28;20696;-77
2021/07/24 02:49:49;;;;;;;12.43;10.57;;;18.90;66.80;;;;;;5054363;28;20264;-78
2021/07/24 02:52:15;;;;;;;12.40;9.43;;;18.90;67.50;;;;;;5054068;28;20648;-79
2021/07/24 02:54:41;;;;;;;14.53;10.80;;;18.90;67.60;;;;;;5053999;28;20227;-78
2021/07/24 02:57:07;;;;;;;18.13;10.97;;;18.70;66.30;;;;;;5036496;28;20179;-78
2021/07/24 02:59:33;;;;;;;11.53;10.27;;;18.90;67.00;;;;;;5054205;28;20168;-78
2021/07/24 03:01:59;;;;;;;13.03;10.53;;;19.00;66.70;;;;;;5053832;28;20165;-77
2021/07/24 03:04:24;;;;;;;16.03;10.97;;;19.00;65.20;;;;;;5053771;28;20202;-77
2021/07/24 03:06:50;;;;;;;12.73;10.63;;;19.00;63.90;;;;;;5053661;28;20174;-77
2021/07/24 03:09:16;;;;;;;15.47;10.50;;;19.10;63.00;;;;;;5053829;28;20209;-77
2021/07/24 03:11:44;;;;;;;12.77;10.50;;;19.00;61.80;;;;;;5054095;28;20634;-78
2021/07/24 03:14:09;;;;;;;13.03;10.83;;;19.00;65.30;;;;;;5053626;28;20177;-77
2021/07/24 03:16:35;;;;;;;12.50;10.77;;;19.00;69.60;;;;;;5053445;28;20498;-77
2021/07/24 03:19:01;;;;;;;12.23;10.93;;;19.00;66.30;;;;;;5052751;28;20176;-78
2021/07/24 03:21:27;;;;;;;15.10;10.67;;;19.00;65.80;;;;;;5053504;28;20628;-78
2021/07/24 03:23:53;;;;;;;13.67;11.00;;;19.00;64.00;;;;;;5053748;28;20189;-78
2021/07/24 03:26:19;;;;;;;14.73;11.50;;;18.90;71.80;;;;;;5053173;28;20708;-77
2021/07/24 03:28:45;;;;;;;13.03;10.60;;;18.80;73.10;;;;;;5053832;28;20206;-79
2021/07/24 03:31:11;;;;;;;14.50;10.93;;;18.90;73.50;;;;;;5053577;28;20174;-78
2021/07/24 03:33:37;;;;;;;14.37;10.70;;;18.80;69.00;;;;;;5053639;28;20172;-77
2021/07/24 03:36:03;;;;;;;12.27;10.37;;;18.90;69.40;;;;;;5053360;28;20177;-77
2021/07/24 03:38:28;;;;;;;15.00;10.93;;;18.90;69.30;;;;;;5053237;28;20189;-78
2021/07/24 03:40:54;;;;;;;14.17;10.93;;;18.90;68.30;;;;;;5053538;28;20220;-79
2021/07/24 03:43:20;;;;;;;11.97;10.37;;;18.90;68.90;;;;;;5053395;28;20172;-78
2021/07/24 03:45:46;;;;;;;12.97;10.73;;;18.90;70.10;;;;;;5053567;28;20218;-79
2021/07/24 03:48:12;;;;;;;15.97;11.60;;;18.90;69.30;;;;;;5053964;28;20211;-78
2021/07/24 03:50:37;;;;;;;13.27;10.73;;;18.70;70.70;;;;;;5053579;28;20356;-78
2021/07/24 03:53:03;;;;;;;13.93;10.77;;;18.70;73.20;;;;;;5052875;28;20576;-78
2021/07/24 03:55:29;;;;;;;13.20;11.50;;;18.70;72.20;;;;;;5056638;28;20172;-76
2021/07/24 03:57:56;;;;;;;13.50;10.67;;;18.60;75.10;;;;;;5055953;28;20216;-78
2021/07/24 04:00:24;;;;;;;13.07;10.77;;;18.70;75.10;;;;;;5055856;28;20165;-77
2021/07/24 04:02:50;;;;;;;14.90;11.10;;;18.90;70.40;;;;;;5054628;28;20180;-77
2021/07/24 04:05:18;;;;;;;13.23;10.87;;;18.90;71.70;;;;;;5055409;28;20173;-77
2021/07/24 04:07:43;;;;;;;13.87;10.37;;;18.90;69.30;;;;;;5053113;28;20690;-78
2021/07/24 04:10:12;;;;;;;13.90;11.53;;;18.80;70.60;;;;;;5053393;28;20176;-77
2021/07/24 04:12:41;;;;;;;14.30;10.77;;;18.70;70.10;;;;;;5052386;28;20176;-78
2021/07/24 04:15:08;;;;;;;12.03;10.77;;;18.70;73.50;;;;;;5051641;28;20246;-80
2021/07/24 04:17:34;;;;;;;13.80;10.30;;;18.80;73.10;;;;;;5052749;28;20260;-78
2021/07/24 04:20:00;;;;;;;13.20;10.33;;;18.80;70.70;;;;;;5052658;28;20171;-78
2021/07/24 04:22:26;;;;;;;12.17;10.50;;;18.90;67.80;;;;;;5054041;28;20177;-78
2021/07/24 04:24:52;;;;;;;13.67;10.60;;;18.90;67.30;;;;;;5053822;28;20191;-77
2021/07/24 04:27:17;;;;;;;12.97;9.90;;;18.90;66.50;;;;;;5053547;28;20174;-78
2021/07/24 04:29:43;;;;;;;13.27;11.00;;;19.00;64.80;;;;;;5053279;28;20528;-78
2021/07/24 04:32:08;;;;;;;15.73;10.13;;;18.90;64.40;;;;;;5052859;28;20170;-78
2021/07/24 04:34:35;;;;;;;14.27;10.40;;;18.90;64.00;;;;;;5052691;28;20177;-78
2021/07/24 04:37:01;;;;;;;13.30;9.80;;;18.90;64.60;;;;;;5052715;28;20179;-78
2021/07/24 04:39:26;;;;;;;12.63;10.07;;;19.00;66.00;;;;;;5052700;28;20174;-79
2021/07/24 04:41:52;;;;;;;14.90;10.23;;;18.90;65.20;;;;;;5052043;28;20170;-79
2021/07/24 04:44:18;;;;;;;14.70;10.20;;;18.90;62.80;;;;;;5051582;28;20549;-78
2021/07/24 04:46:43;;;;;;;16.17;10.57;;;18.90;65.30;;;;;;5052692;28;20640;-78
2021/07/24 04:49:09;;;;;;;17.27;10.97;;;18.90;66.80;;;;;;5052454;28;20700;-78
2021/07/24 04:51:35;;;;;;;12.77;10.40;;;18.90;65.20;;;;;;5052635;28;20178;-78
2021/07/24 04:54:03;;;;;;;12.90;10.87;;;18.90;64.90;;;;;;5051784;28;20683;-78
2021/07/24 04:56:28;;;;;;;11.90;9.93;;;18.90;64.90;;;;;;5052591;28;20173;-76
2021/07/24 04:58:54;;;;;;;11.93;10.63;;;18.90;66.30;;;;;;5052794;28;20695;-80
2021/07/24 05:01:20;;;;;;;13.10;10.20;;;18.80;67.50;;;;;;5052870;28;20177;-79
2021/07/24 05:03:46;;;;;;;16.07;9.83;;;18.80;66.80;;;;;;5052465;28;20290;-79
2021/07/24 05:06:12;;;;;;;12.27;9.30;;;18.90;64.70;;;;;;5052875;28;20207;-78
2021/07/24 05:08:38;;;;;;;12.43;10.20;;;18.90;63.30;;;;;;5052675;28;20664;-79
2021/07/24 05:11:04;;;;;;;11.00;9.90;;;18.90;62.20;;;;;;5051526;28;20319;-79
2021/07/24 05:13:30;;;;;;;14.43;11.53;;;19.00;63.20;;;;;;5052562;28;20224;-77
2021/07/24 05:15:56;;;;;;;13.10;10.53;;;18.90;61.20;;;;;;5053289;28;20193;-77
2021/07/24 05:18:22;;;;;;;11.67;10.33;;;19.00;62.60;;;;;;5054279;28;20173;-78
2021/07/24 05:20:48;;;;;;;13.63;10.17;;;18.90;62.90;;;;;;5057902;28;20176;-77
2021/07/24 05:23:14;;;;;;;12.53;10.40;;;18.90;64.50;;;;;;5058098;28;20193;-77
2021/07/24 05:25:40;;;;;;;12.90;10.83;;;18.80;66.90;;;;;;5060761;28;20180;-76
2021/07/24 05:28:06;;;;;;;13.13;10.80;;;18.80;66.60;;;;;;5061988;28;20212;-78
2021/07/24 05:30:32;;;;;;;14.77;11.07;;;18.80;68.50;;;;;;5062008;28;20176;-77
2021/07/24 05:32:57;;;;;;;13.50;10.90;;;18.80;70.00;;;;;;5063653;28;20180;-77
2021/07/24 05:35:23;;;;;;;16.03;12.53;;;18.80;69.00;;;;;;5064359;28;20184;-77
2021/07/24 05:37:49;;;;;;;16.63;10.73;;;18.90;66.60;;;;;;5064503;28;20190;-77
2021/07/24 05:40:15;;;;;;;13.33;10.30;;;18.90;67.60;;;;;;5064049;28;20274;-77
2021/07/24 05:42:40;;;;;;;12.20;10.40;;;18.80;67.60;;;;;;5060261;28;20672;-78
2021/07/24 05:45:06;;;;;;;14.90;10.63;;;18.90;64.80;;;;;;5056056;28;20179;-78
2021/07/24 05:47:32;;;;;;;13.13;11.27;;;18.90;65.60;;;;;;5055362;28;20185;-78
2021/07/24 05:49:59;;;;;;;14.77;10.47;;;19.00;64.50;;;;;;5055248;28;20222;-79
2021/07/24 05:52:25;;;;;;;13.77;10.80;;;19.20;63.10;;;;;;5055633;28;20629;-78
2021/07/24 05:54:51;;;;;;;15.43;10.60;;;19.40;55.20;;;;;;5054948;28;20181;-78
2021/07/24 05:57:17;;;;;;;14.23;10.83;;;19.30;51.90;;;;;;5055379;28;20169;-77
2021/07/24 05:59:43;;;;;;;13.43;10.63;;;19.60;48.60;;;;;;5055139;28;20174;-78
2021/07/24 06:02:12;;;;;;;12.67;10.80;;;19.70;42.70;;;;;;5054997;28;20197;-79
2021/07/24 06:04:42;;;;;;;13.90;9.93;;;20.00;35.70;;;;;;5054921;28;20186;-78
2021/07/24 06:07:10;;;;;;;13.70;11.13;;;20.20;29.40;;;;;;5055110;28;20182;-78
2021/07/24 06:09:36;;;;;;;14.23;10.93;;;20.20;24.10;;;;;;5055406;28;20187;-80
2021/07/24 06:12:02;;;;;;;14.47;10.37;;;20.20;25.40;;;;;;5054346;28;20191;-78
2021/07/24 06:14:27;;;;;;;14.07;11.33;;;20.30;24.30;;;;;;5054809;28;20197;-79
2021/07/24 06:16:53;;;;;;;13.03;11.10;;;20.30;17.60;;;;;;5054859;28;20520;-78
2021/07/24 06:19:20;;;;;;;14.17;12.03;;;20.30;19.50;;;;;;5055014;28;20221;-79
2021/07/24 06:21:47;;;;;;;13.40;11.27;;;20.40;18.90;;;;;;5054939;28;20175;-76
2021/07/24 06:24:14;;;;;;;14.03;10.80;;;20.40;15.50;;;;;;5055036;28;20224;-78
2021/07/24 06:26:40;;;;;;;13.97;10.67;;;20.40;13.30;;;;;;5056255;28;20177;-79
2021/07/24 06:29:07;;;;;;;15.07;10.77;;;20.40;17.60;;;;;;5054758;28;20213;-78
2021/07/24 06:31:32;;;;;;;14.17;10.97;;;20.50;15.60;;;;;;5053278;28;20176;-78
2021/07/24 06:34:00;;;;;;;11.93;10.50;;;20.50;14.10;;;;;;5054482;28;20214;-79
2021/07/24 06:36:26;;;;;;;15.27;10.83;;;20.40;11.30;;;;;;5053850;28;20210;-78
2021/07/24 06:38:52;;;;;;;13.77;10.77;;;20.40;12.60;;;;;;5054338;28;20547;-79
2021/07/24 06:41:18;;;;;;;13.87;10.40;;;20.50;11.80;;;;;;5052669;28;20266;-81
2021/07/24 06:43:43;;;;;;;13.87;10.70;;;20.40;17.40;;;;;;5054172;28;20233;-78
2021/07/24 06:46:15;;;;;;;14.47;10.80;;;20.50;14.40;;;;;;5053955;28;20172;-80
2021/07/24 06:48:42;;;;;;;14.07;11.20;;;20.60;9.30;;;;;;5054001;28;20246;-77
2021/07/24 06:51:09;;;;;;;12.33;10.70;;;20.60;8.70;;;;;;5054352;28;20211;-78
2021/07/24 06:53:35;;;;;;;14.87;11.00;;;20.60;5.50;;;;;;5054288;28;20180;-78
2021/07/24 06:56:02;;;;;;;13.33;10.70;;;20.90;4.40;;;;;;5053684;28;20209;-78
2021/07/24 06:58:28;;;;;;;12.40;10.73;;;20.80;1.10;;;;;;5052355;28;20181;-79
2021/07/24 07:00:53;;;;;;;12.80;11.43;;;20.80;1.00;;;;;;5053944;28;20169;-79
2021/07/24 07:03:19;;;;;;;12.33;10.40;;;20.90;1.00;;;;;;5054156;28;20259;-78
2021/07/24 07:05:45;;;;;;;12.70;10.80;;;21.00;1.00;;;;;;5053250;28;20172;-78
2021/07/24 07:08:10;;;;;;;27.50;11.80;;;20.90;1.00;;;;;;5053725;28;20220;-79
2021/07/24 07:10:36;;;;;;;15.37;10.97;;;20.90;1.00;;;;;;5054201;28;20203;-78
2021/07/24 07:13:02;;;;;;;12.67;10.90;;;20.80;1.00;;;;;;5052694;28;20187;-79
2021/07/24 07:15:28;;;;;;;13.93;10.87;;;20.70;1.10;;;;;;5052351;28;20203;-78
2021/07/24 07:17:55;;;;;;;12.47;10.67;;;20.70;1.50;;;;;;5053840;28;20271;-79
2021/07/24 07:20:21;;;;;;;13.67;10.73;;;20.70;2.40;;;;;;5053522;28;20179;-79
2021/07/24 07:22:47;;;;;;;12.17;10.90;;;20.70;3.20;;;;;;5053293;28;20174;-79
2021/07/24 07:25:12;;;;;;;19.33;12.50;;;20.70;1.60;;;;;;5052201;28;20188;-78
2021/07/24 07:27:42;;;;;;;16.50;12.43;;;20.70;4.80;;;;;;5053402;28;20200;-79
2021/07/24 07:30:09;;;;;;;14.60;11.73;;;20.70;9.00;;;;;;5053358;28;20659;-79
2021/07/24 07:32:35;;;;;;;13.27;11.17;;;20.70;10.30;;;;;;5053186;28;20175;-78
2021/07/24 07:35:01;;;;;;;17.50;11.30;;;20.60;14.50;;;;;;5053499;28;20255;-78
2021/07/24 07:37:27;;;;;;;13.90;11.40;;;20.70;14.30;;;;;;5052181;28;20640;-79
2021/07/24 07:39:52;;;;;;;15.27;11.73;;;20.80;10.40;;;;;;5053524;28;20169;-80
2021/07/24 07:42:18;;;;;;;13.63;11.37;;;20.90;6.80;;;;;;5051623;28;20230;-79
2021/07/24 07:44:44;;;;;;;14.87;11.20;;;20.80;11.20;;;;;;5053403;28;20173;-79
2021/07/24 07:47:10;;;;;;;13.97;11.73;;;20.90;8.70;;;;;;5052909;28;20169;-79
2021/07/24 07:49:37;;;;;;;14.13;12.23;;;20.80;7.50;;;;;;5052837;28;20220;-79
2021/07/24 07:52:04;;;;;;;15.30;11.97;;;21.00;1.00;;;;;;5053142;28;20190;-79
2021/07/24 07:54:30;;;;;;;13.63;11.20;;;21.20;1.00;;;;;;5053490;28;20166;-79
2021/07/24 07:56:57;;;;;;;14.27;11.53;;;21.40;1.00;;;;;;5053323;28;20520;-77
2021/07/24 07:59:23;;;;;;;14.77;10.77;;;21.50;1.00;;;;;;5051735;28;20180;-81
2021/07/24 08:01:49;;;;;;;12.57;11.23;;;21.60;1.00;;;;;;5053032;28;20176;-79
2021/07/24 08:04:15;;;;;;;13.47;11.33;;;21.80;1.00;;;;;;5053401;28;20188;-77
2021/07/24 08:06:40;;;;;;;16.23;11.80;;;21.90;1.00;;;;;;5058401;28;20204;-78
2021/07/24 08:09:06;;;;;;;12.57;11.37;;;22.00;1.00;;;;;;5059802;28;20574;-78
2021/07/24 08:11:32;;;;;;;13.73;11.37;;;22.20;1.00;;;;;;5052914;28;20181;-79
2021/07/24 08:13:57;;;;;;;12.97;11.37;;;22.10;1.00;;;;;;5052802;28;20739;-79
2021/07/24 08:16:23;;;;;;;12.73;11.30;;;22.10;1.00;;;;;;5052588;28;20179;-78
2021/07/24 08:18:49;;;;;;;14.53;10.70;;;22.10;1.00;;;;;;5051529;28;20575;-77
2021/07/24 08:21:14;;;;;;;13.33;11.40;;;22.00;1.00;;;;;;5052659;28;20203;-76
2021/07/24 08:23:40;;;;;;;15.37;10.97;;;21.90;1.00;;;;;;5052529;28;20196;-78
2021/07/24 08:26:06;;;;;;;15.53;11.73;;;22.00;1.00;;;;;;5052048;28;20271;-77
2021/07/24 08:28:32;;;;;;;16.90;12.03;;;22.10;1.00;;;;;;5052727;28;20276;-79
2021/07/24 08:30:59;;;;;;;16.70;11.60;;;22.20;1.00;;;;;;5052469;28;20175;-79
2021/07/24 08:33:25;;;;;;;18.67;11.87;;;22.40;1.00;;;;;;5052563;28;20196;-78
2021/07/24 08:35:51;;;;;;;20.70;11.83;;;22.60;1.00;;;;;;5051516;28;20262;-79
2021/07/24 08:38:17;;;;;;;15.37;11.50;;;22.60;1.00;;;;;;5052784;28;20301;-78
2021/07/24 08:40:46;;;;;;;13.10;11.47;;;22.80;1.00;;;;;;5081143;28;20241;-78
2021/07/24 08:43:12;;;;;;;16.20;11.63;;;22.90;1.00;;;;;;5071061;28;20254;-79
2021/07/24 08:45:38;;;;;;;14.00;11.70;;;22.80;1.00;;;;;;5078129;28;20687;-78
2021/07/24 08:48:05;;;;;;;12.93;11.63;;;22.90;1.00;;;;;;5089114;28;20232;-77
2021/07/24 08:50:33;;;;;;;13.80;12.20;;;23.00;1.00;;;;;;5091408;28;20533;-79
2021/07/24 08:53:05;;;;;;;14.33;11.83;;;23.10;1.00;;;;;;5079269;28;20198;-80
2021/07/24 08:55:32;;;;;;;14.00;11.50;;;23.10;1.00;;;;;;5080110;28;20519;-78
2021/07/24 08:58:00;;;;;;;13.37;11.97;;;23.10;1.00;;;;;;5094670;28;20221;-79
2021/07/24 09:00:27;;;;;;;13.93;11.83;;;23.30;1.00;;;;;;5077421;28;20189;-78
2021/07/24 09:02:57;;;;;;;13.47;12.07;;;23.40;1.00;;;;;;5077907;28;20171;-79
2021/07/24 09:05:23;;;;;;;14.90;12.07;;;23.60;1.00;;;;;;5075320;28;20221;-78
2021/07/24 09:07:50;;;;;;;13.67;12.13;;;23.50;1.00;;;;;;5074981;28;20204;-78
2021/07/24 09:10:18;;;;;;;13.70;11.80;;;23.40;1.00;;;;;;5075568;28;20183;-78
2021/07/24 09:12:48;;;;;;;14.03;11.23;;;23.30;1.00;;;;;;5077525;28;20171;-79
2021/07/24 09:15:17;;;;;;;18.23;12.37;;;23.20;1.00;;;;;;5095905;28;20222;-79
2021/07/24 09:17:42;;;;;;;14.90;12.03;;;23.30;1.00;;;;;;5076733;28;20258;-80
2021/07/24 09:20:09;;;;;;;15.03;11.87;;;23.20;1.00;;;;;;5076826;28;20262;-80
2021/07/24 09:22:36;;;;;;;12.50;11.20;;;23.00;1.00;;;;;;5076279;28;20165;-79
2021/07/24 09:25:15;;;;;;;16.57;11.90;;;23.00;1.00;;;;;;5076188;28;20171;-80
2021/07/24 09:27:45;;;;;;;14.50;12.13;;;23.40;1.00;;;;;;5075893;28;20203;-79
2021/07/24 09:30:32;;;;;;;14.90;11.70;;;23.30;1.00;;;;;;5075999;28;20645;-80
2021/07/24 09:33:15;;;;;;;15.43;11.27;;;23.20;1.00;;;;;;5076128;28;20191;-79
2021/07/24 09:35:54;;;;;;;14.57;11.33;;;23.20;1.00;;;;;;5075358;28;20178;-79
2021/07/24 09:38:32;;;;;;;13.10;11.70;;;23.10;1.00;;;;;;5075461;28;20217;-79
2021/07/24 09:41:00;;;;;;;18.53;11.53;;;23.00;1.00;;;;;;5074321;28;20166;-78
2021/07/24 09:43:41;;;;;;;15.50;11.50;;;22.90;1.00;;;;;;5075764;28;20533;-79
2021/07/24 09:46:12;;;;;;;15.63;11.97;;;22.90;1.00;;;;;;5074898;28;20290;-79
2021/07/24 09:48:41;;;;;;;14.20;11.97;;;22.90;1.00;;;;;;5075725;28;20199;-78
2021/07/24 09:51:08;;;;;;;12.70;11.33;;;23.00;1.00;;;;;;5074556;28;20563;-78
2021/07/24 09:53:41;;;;;;;12.50;11.17;;;23.00;1.00;;;;;;5075211;28;20167;-78
2021/07/24 09:56:13;;;;;;;14.17;11.30;;;22.90;1.00;;;;;;5074542;28;20228;-80
2021/07/24 09:58:39;;;;;;;14.37;12.17;;;23.10;1.00;;;;;;5075987;28;20176;-80
2021/07/24 10:01:07;;;;;;;14.83;12.00;;;23.30;1.00;;;;;;5075656;28;20301;-78
2021/07/24 10:03:35;;;;;;;17.43;12.20;;;23.30;1.00;;;;;;5075444;28;20168;-79
2021/07/24 10:06:08;;;;;;;13.77;12.10;;;23.30;1.00;;;;;;5075417;28;20167;-77
2021/07/24 10:08:36;;;;;;;24.27;13.57;;;23.40;1.00;;;;;;5076023;28;20208;-77
2021/07/24 10:11:02;;;;;;;13.90;11.63;;;23.20;1.00;;;;;;5077269;28;20252;-74
2021/07/24 10:13:28;;;;;;;16.93;12.57;;;23.40;1.00;;;;;;5079528;28;20223;-77
2021/07/24 10:15:55;;;;;;;13.80;12.13;;;23.40;1.00;;;;;;5079862;28;20169;-76
2021/07/24 10:18:22;;;;;;;15.27;12.37;;;23.40;1.00;;;;;;5085072;28;20164;-78
2021/07/24 10:20:50;;;;;;;15.17;12.27;;;23.20;1.00;;;;;;5080237;28;20171;-77
2021/07/24 10:23:23;;;;;;;14.23;12.10;;;23.10;1.00;;;;;;5075654;28;20238;-79
2021/07/24 10:26:07;;;;;;;13.97;12.53;;;23.10;1.00;;;;;;5075575;28;20739;-79
2021/07/24 10:28:55;;;;;;;15.03;12.83;;;23.10;1.00;;;;;;5075196;28;20203;-78
2021/07/24 10:31:36;;;;;;;16.03;13.00;;;23.10;1.00;;;;;;5074292;28;20583;-78
2021/07/24 10:34:07;;;;;;;15.20;11.80;;;23.00;1.00;;;;;;5074791;28;20160;-80
2021/07/24 10:36:42;;;;;;;17.63;13.50;;;23.00;1.00;;;;;;5074597;28;20191;-77
2021/07/24 10:39:18;;;;;;;14.67;13.07;;;23.00;1.00;;;;;;5074845;28;20191;-79
2021/07/24 10:41:45;;;;;;;15.30;12.80;;;23.00;1.00;;;;;;5074815;28;20164;-79
2021/07/24 10:44:18;;;;;;;16.07;13.20;;;23.00;1.00;;;;;;5075883;28;20236;-78
2021/07/24 10:46:44;;;;;;;15.27;13.17;;;23.00;1.00;;;;;;5078562;28;20258;-80
2021/07/24 10:49:21;;;;;;;14.30;12.80;;;22.80;1.00;;;;;;5075203;28;20207;-80
2021/07/24 10:52:00;;;;;;;14.30;12.80;;;22.90;1.00;;;;;;5074610;28;20179;-79
2021/07/24 10:54:30;;;;;;;16.10;13.43;;;23.00;1.00;;;;;;5074671;28;20168;-79
2021/07/24 10:56:56;;;;;;;18.90;14.33;;;23.00;1.00;;;;;;5074752;28;20167;-79
2021/07/24 10:59:29;;;;;;;18.07;13.97;;;23.00;1.00;;;;;;5073980;28;20225;-79
2021/07/24 11:01:56;;;;;;;17.47;13.57;;;22.80;6.30;;;;;;5074381;28;20168;-80
2021/07/24 11:04:37;;;;;;;16.00;14.23;;;22.90;7.90;;;;;;5075401;28;20175;-77
2021/07/24 11:07:21;;;;;;;19.00;15.20;;;22.90;8.50;;;;;;5077144;28;20639;-78
2021/07/24 11:09:53;;;;;;;18.63;14.37;;;22.90;11.80;;;;;;5075334;28;20178;-76
2021/07/24 11:12:34;;;;;;;17.30;14.50;;;23.00;11.70;;;;;;5074375;28;20258;-81
2021/07/24 11:15:00;;;;;;;16.80;14.87;;;22.90;11.10;;;;;;5074009;28;20232;-80
2021/07/24 11:17:27;;;;;;;16.80;14.17;;;22.90;11.70;;;;;;5074405;28;20241;-78
2021/07/24 11:19:53;;;;;;;16.27;14.57;;;22.90;14.70;;;;;;5073659;28;20174;-80
2021/07/24 11:22:20;;;;;;;15.97;13.93;;;22.90;13.40;;;;;;5074705;28;20163;-80
2021/07/24 11:24:51;;;;;;;16.47;14.63;;;22.80;16.20;;;;;;5073945;28;20561;-81
2021/07/24 11:27:23;;;;;;;18.03;14.30;;;22.90;18.70;;;;;;5074174;28;20174;-80
2021/07/24 11:29:48;;;;;;;18.10;15.00;;;22.90;15.80;;;;;;5074228;28;20179;-79
2021/07/24 11:32:15;;;;;;;17.40;14.67;;;22.90;17.10;;;;;;5074159;28;20178;-78
2021/07/24 11:34:43;;;;;;;18.43;14.50;;;22.70;20.40;;;;;;5072968;28;20178;-78
2021/07/24 11:37:11;;;;;;;18.03;14.90;;;22.70;24.50;;;;;;5073449;28;20189;-79
2021/07/24 11:39:36;;;;;;;17.20;14.00;;;22.90;23.40;;;;;;5073936;28;20171;-80
2021/07/24 11:42:02;;;;;;;18.67;13.43;;;22.90;19.90;;;;;;5073456;28;20171;-79
2021/07/24 11:44:30;;;;;;;16.47;13.47;;;23.00;17.90;;;;;;5073581;28;20184;-79
2021/07/24 11:47:01;;;;;;;16.33;14.00;;;23.10;14.70;;;;;;5073226;28;20706;-78
2021/07/24 11:49:28;;;;;;;15.27;13.67;;;23.10;11.50;;;;;;5073414;28;20779;-78
2021/07/24 11:51:54;;;;;;;16.47;13.57;;;23.10;12.00;;;;;;5074179;28;20609;-81
2021/07/24 11:54:36;;;;;;;15.73;14.03;;;23.10;11.60;;;;;;5074520;28;20185;-79
2021/07/24 11:57:04;;;;;;;16.60;13.90;;;23.20;9.00;;;;;;5074020;28;20178;-80
2021/07/24 11:59:34;;;;;;;18.50;14.53;;;23.30;6.40;;;;;;5074991;28;20195;-79
2021/07/24 12:02:01;;;;;;;18.03;13.47;;;23.50;5.10;;;;;;5075999;28;20648;-78
2021/07/24 12:04:28;;;;;;;19.13;14.50;;;23.50;4.50;;;;;;5091182;28;20187;-77
2021/07/24 12:07:01;;;;;;;15.60;13.97;;;23.70;4.20;;;;;;5090242;28;20176;-78
2021/07/24 12:09:27;;;;;;;17.23;14.27;;;24.00;1.00;;;;;;5075585;28;20388;-81
2021/07/24 12:11:55;;;;;;;16.53;12.70;;;24.10;1.00;;;;;;5074667;28;20168;-80
2021/07/24 12:14:24;;;;;;;17.13;12.70;;;23.90;1.00;;;;;;5074080;28;20198;-79
2021/07/24 12:17:09;;;;;;;17.37;13.70;;;23.80;1.00;;;;;;5072348;28;20203;-78
2021/07/24 12:19:44;;;;;;;14.70;12.77;;;23.80;1.00;;;;;;5073259;28;20152;-80
2021/07/24 12:22:21;;;;;;;14.73;13.23;;;23.90;1.00;;;;;;5073475;28;20167;-80
2021/07/24 12:24:51;;;;;;;17.67;13.10;;;24.10;1.00;;;;;;5074179;28;20191;-79
2021/07/24 12:27:19;;;;;;;19.33;12.77;;;24.20;1.00;;;;;;5073691;28;20179;-79
2021/07/24 12:29:58;;;;;;;14.50;12.93;;;24.30;1.00;;;;;;5073637;28;20210;-79
2021/07/24 12:32:36;;;;;;;17.73;13.00;;;24.40;1.00;;;;;;5073448;28;20156;-79
2021/07/24 12:35:16;;;;;;;14.00;12.10;;;24.30;1.00;;;;;;5075870;28;20188;-80
2021/07/24 12:37:43;;;;;;;17.90;13.63;;;24.40;1.00;;;;;;5077757;28;20160;-80
2021/07/24 12:40:16;;;;;;;16.47;13.77;;;24.40;1.00;;;;;;5077903;28;20529;-79